Luka, Czech Republic

11:54 AM CEST on August 25, 2016 (GMT +0200)
Vilemov, Olomouc | | Change Station

Elev 1253 ft 49.64 °N, 17.00 °E | Updated 22 seconds ago

Partly Cloudy
Partly Cloudy
76.3 °F
Feels Like 78 °F
N
5.4
Wind Variable Wind from East
Gusts 7.6 mph

Today
High -- | Low -- °F
--% Chance of Precip.
Yesterday
High -- | Low -- °F
Precip. -- in
Pressure 30.24 in
Visibility 6.2 miles
Clouds Few 3000 ft
Heat Index 78 °F
Dew Point 60 °F
Humidity 58%
Rainfall 0.00 in
Snow Depth Not available.
5:57 AM 7:49 PM
Waning Gibbous, 47% visible
METAR LKTB 250930Z 08008KT 050V110 9999 FEW030 23/15 Q1024 NOSIG
Pressure 30.24 in
Visibility 6.2 miles
Clouds Few 3000 ft
Heat Index 78 °F
Dew Point 60 °F
Humidity 58%
Rainfall 0.00 in
Snow Depth Not available.
5:57 AM 7:49 PM
Waning Gibbous, 47% visible
METAR LKTB 250930Z 08008KT 050V110 9999 FEW030 23/15 Q1024 NOSIG

10-Day Weather Forecast

×

Almanac

Astronomy

Aug. 25, 2016 Rise Set
Actual Time
Civil Twilight
Nautical Twilight
Astronomical Twilight
Moon
Length of Visible Light
Length of Day
Tomorrow will be .
, % of the Moon is Illuminated

Today's Extremes

Country Highs Country Lows

Community

WunderPhotos

Upload Photos

1,934,818 photos uploaded!

WunderBlog® & News

Nearby

Air Quality

  Air Quality AQ Index Pollutant
Not available.

Snow Depth

Station Depth Elevation

Earthquake Activity

City Distance Mag. Time & Date
Minimum magnitude displayed is 2.5.

Coastal Water Temperatures

Place Temperature

Stations

Nearby Weather Stations

Station Location Temp. Windchill Dew Point Humidity Wind Precip. Elev Updated Type